sensor_id;sensor_type;location;lat;lon;timestamp;temperature;humidity
47546;DHT22;50104;52.002;4.688;2024-01-11T00:02:59;-3.30;76.40
47546;DHT22;50104;52.002;4.688;2024-01-11T00:08:00;-3.30;76.10
47546;DHT22;50104;52.002;4.688;2024-01-11T00:13:01;-3.30;75.90
47546;DHT22;50104;52.002;4.688;2024-01-11T00:18:02;-3.30;76.00
47546;DHT22;50104;52.002;4.688;2024-01-11T00:23:03;-3.30;76.10
47546;DHT22;50104;52.002;4.688;2024-01-11T00:28:04;-3.40;76.20
47546;DHT22;50104;52.002;4.688;2024-01-11T00:33:05;-3.40;76.10
47546;DHT22;50104;52.002;4.688;2024-01-11T00:38:07;-3.40;76.20
47546;DHT22;50104;52.002;4.688;2024-01-11T00:43:08;-3.40;76.40
47546;DHT22;50104;52.002;4.688;2024-01-11T00:48:08;-3.40;76.20
47546;DHT22;50104;52.002;4.688;2024-01-11T00:53:09;-3.40;76.70
47546;DHT22;50104;52.002;4.688;2024-01-11T00:58:11;-3.50;76.50
47546;DHT22;50104;52.002;4.688;2024-01-11T01:03:12;-3.50;76.50
47546;DHT22;50104;52.002;4.688;2024-01-11T01:08:14;-3.50;76.70
47546;DHT22;50104;52.002;4.688;2024-01-11T01:13:15;-3.50;76.70
47546;DHT22;50104;52.002;4.688;2024-01-11T01:18:16;-3.50;76.60
47546;DHT22;50104;52.002;4.688;2024-01-11T01:23:16;-3.50;76.80
47546;DHT22;50104;52.002;4.688;2024-01-11T01:28:18;-3.50;76.70
47546;DHT22;50104;52.002;4.688;2024-01-11T01:33:19;-3.50;76.70
47546;DHT22;50104;52.002;4.688;2024-01-11T01:38:20;-3.50;77.70
47546;DHT22;50104;52.002;4.688;2024-01-11T01:43:21;-3.60;77.70
47546;DHT22;50104;52.002;4.688;2024-01-11T01:48:22;-3.50;77.80
47546;DHT22;50104;52.002;4.688;2024-01-11T01:53:24;-3.50;77.60
47546;DHT22;50104;52.002;4.688;2024-01-11T01:58:25;-3.50;78.00
47546;DHT22;50104;52.002;4.688;2024-01-11T02:03:28;-3.50;78.10
47546;DHT22;50104;52.002;4.688;2024-01-11T02:08:30;-3.50;77.80
47546;DHT22;50104;52.002;4.688;2024-01-11T02:13:32;-3.50;77.80
47546;DHT22;50104;52.002;4.688;2024-01-11T02:18:33;-3.60;77.80
47546;DHT22;50104;52.002;4.688;2024-01-11T02:23:39;-3.60;78.00
47546;DHT22;50104;52.002;4.688;2024-01-11T02:28:46;-3.60;77.90
47546;DHT22;50104;52.002;4.688;2024-01-11T02:33:47;-3.60;77.80
47546;DHT22;50104;52.002;4.688;2024-01-11T02:38:48;-3.60;77.30
47546;DHT22;50104;52.002;4.688;2024-01-11T02:43:52;-3.60;77.70
47546;DHT22;50104;52.002;4.688;2024-01-11T02:48:54;-3.60;77.50
47546;DHT22;50104;52.002;4.688;2024-01-11T02:53:55;-3.70;77.80
47546;DHT22;50104;52.002;4.688;2024-01-11T02:58:56;-3.70;78.10
47546;DHT22;50104;52.002;4.688;2024-01-11T03:03:57;-3.70;78.00
47546;DHT22;50104;52.002;4.688;2024-01-11T03:08:57;-3.70;77.80
47546;DHT22;50104;52.002;4.688;2024-01-11T03:13:58;-3.80;77.50
47546;DHT22;50104;52.002;4.688;2024-01-11T03:18:59;-3.80;78.00
47546;DHT22;50104;52.002;4.688;2024-01-11T03:24:01;-3.80;78.00
47546;DHT22;50104;52.002;4.688;2024-01-11T03:29:02;-3.80;77.90
47546;DHT22;50104;52.002;4.688;2024-01-11T03:34:02;-3.80;77.80
47546;DHT22;50104;52.002;4.688;2024-01-11T03:39:03;-3.80;77.90
47546;DHT22;50104;52.002;4.688;2024-01-11T03:44:05;-3.90;77.90
47546;DHT22;50104;52.002;4.688;2024-01-11T03:49:06;-3.90;77.80
47546;DHT22;50104;52.002;4.688;2024-01-11T03:54:08;-3.90;77.80
47546;DHT22;50104;52.002;4.688;2024-01-11T03:59:10;-3.90;77.90
47546;DHT22;50104;52.002;4.688;2024-01-11T04:04:14;-4.00;77.90
47546;DHT22;50104;52.002;4.688;2024-01-11T04:09:14;-4.00;77.90
47546;DHT22;50104;52.002;4.688;2024-01-11T04:14:15;-4.00;78.00
47546;DHT22;50104;52.002;4.688;2024-01-11T04:19:16;-4.10;77.90
47546;DHT22;50104;52.002;4.688;2024-01-11T04:24:17;-4.10;77.90
47546;DHT22;50104;52.002;4.688;2024-01-11T04:29:18;-4.10;77.80
47546;DHT22;50104;52.002;4.688;2024-01-11T04:34:18;-4.10;77.70
47546;DHT22;50104;52.002;4.688;2024-01-11T04:39:20;-4.10;77.60
47546;DHT22;50104;52.002;4.688;2024-01-11T04:44:21;-4.20;77.50
47546;DHT22;50104;52.002;4.688;2024-01-11T04:49:21;-4.20;77.70
47546;DHT22;50104;52.002;4.688;2024-01-11T04:54:24;-4.30;77.80
47546;DHT22;50104;52.002;4.688;2024-01-11T04:59:25;-4.30;77.90
47546;DHT22;50104;52.002;4.688;2024-01-11T05:04:25;-4.30;78.10
47546;DHT22;50104;52.002;4.688;2024-01-11T05:09:26;-4.30;78.10
47546;DHT22;50104;52.002;4.688;2024-01-11T05:14:27;-4.30;78.30
47546;DHT22;50104;52.002;4.688;2024-01-11T05:19:28;-4.30;78.40
47546;DHT22;50104;52.002;4.688;2024-01-11T05:24:28;-4.30;78.50
47546;DHT22;50104;52.002;4.688;2024-01-11T05:29:29;-4.30;78.50
47546;DHT22;50104;52.002;4.688;2024-01-11T05:34:30;-4.30;78.50
47546;DHT22;50104;52.002;4.688;2024-01-11T05:39:31;-4.30;78.40
47546;DHT22;50104;52.002;4.688;2024-01-11T05:44:32;-4.30;78.30
47546;DHT22;50104;52.002;4.688;2024-01-11T05:49:33;-4.30;78.10
47546;DHT22;50104;52.002;4.688;2024-01-11T05:54:34;-4.40;78.10
47546;DHT22;50104;52.002;4.688;2024-01-11T05:59:34;-4.40;78.10
47546;DHT22;50104;52.002;4.688;2024-01-11T06:04:35;-4.40;78.00
47546;DHT22;50104;52.002;4.688;2024-01-11T06:09:36;-4.40;77.90
47546;DHT22;50104;52.002;4.688;2024-01-11T06:14:37;-4.40;77.70
47546;DHT22;50104;52.002;4.688;2024-01-11T06:19:38;-4.40;77.60
47546;DHT22;50104;52.002;4.688;2024-01-11T06:24:39;-4.50;77.50
47546;DHT22;50104;52.002;4.688;2024-01-11T06:29:39;-4.50;77.40
47546;DHT22;50104;52.002;4.688;2024-01-11T06:34:40;-4.50;77.40
47546;DHT22;50104;52.002;4.688;2024-01-11T06:39:45;-4.60;77.40
47546;DHT22;50104;52.002;4.688;2024-01-11T06:44:46;-4.60;77.50
47546;DHT22;50104;52.002;4.688;2024-01-11T06:49:47;-4.60;77.50
47546;DHT22;50104;52.002;4.688;2024-01-11T06:54:48;-4.60;77.50
47546;DHT22;50104;52.002;4.688;2024-01-11T06:59:49;-4.60;77.50
47546;DHT22;50104;52.002;4.688;2024-01-11T07:04:51;-4.70;77.80
47546;DHT22;50104;52.002;4.688;2024-01-11T07:09:51;-4.70;78.00
47546;DHT22;50104;52.002;4.688;2024-01-11T07:14:55;-4.70;78.00
47546;DHT22;50104;52.002;4.688;2024-01-11T07:19:56;-4.70;78.10
47546;DHT22;50104;52.002;4.688;2024-01-11T07:24:57;-4.70;78.60
47546;DHT22;50104;52.002;4.688;2024-01-11T07:29:58;-4.70;79.00
47546;DHT22;50104;52.002;4.688;2024-01-11T07:34:59;-4.70;78.80
47546;DHT22;50104;52.002;4.688;2024-01-11T07:39:59;-4.70;78.80
47546;DHT22;50104;52.002;4.688;2024-01-11T07:45:00;-4.70;78.70
47546;DHT22;50104;52.002;4.688;2024-01-11T07:50:01;-4.70;79.20
47546;DHT22;50104;52.002;4.688;2024-01-11T07:55:03;-4.70;79.30
47546;DHT22;50104;52.002;4.688;2024-01-11T08:00:08;-4.70;79.10
47546;DHT22;50104;52.002;4.688;2024-01-11T08:05:09;-4.70;78.90
47546;DHT22;50104;52.002;4.688;2024-01-11T08:10:10;-4.70;78.80
47546;DHT22;50104;52.002;4.688;2024-01-11T08:15:11;-4.70;78.80
47546;DHT22;50104;52.002;4.688;2024-01-11T08:20:13;-4.70;78.90
47546;DHT22;50104;52.002;4.688;2024-01-11T08:25:16;-4.60;78.80
47546;DHT22;50104;52.002;4.688;2024-01-11T08:30:18;-4.60;78.90
47546;DHT22;50104;52.002;4.688;2024-01-11T08:35:19;-4.60;79.00
47546;DHT22;50104;52.002;4.688;2024-01-11T08:40:20;-4.60;79.20
47546;DHT22;50104;52.002;4.688;2024-01-11T08:45:21;-4.50;79.40
47546;DHT22;50104;52.002;4.688;2024-01-11T08:50:23;-4.40;79.60
47546;DHT22;50104;52.002;4.688;2024-01-11T08:55:23;-4.40;79.70
47546;DHT22;50104;52.002;4.688;2024-01-11T09:00:26;-4.30;79.60
47546;DHT22;50104;52.002;4.688;2024-01-11T09:05:27;-4.20;79.80
47546;DHT22;50104;52.002;4.688;2024-01-11T09:10:28;-4.20;80.10
47546;DHT22;50104;52.002;4.688;2024-01-11T09:15:28;-4.10;80.50
47546;DHT22;50104;52.002;4.688;2024-01-11T09:20:29;-4.00;80.70
47546;DHT22;50104;52.002;4.688;2024-01-11T09:25:30;-3.90;80.90
47546;DHT22;50104;52.002;4.688;2024-01-11T09:30:31;-3.70;81.10
47546;DHT22;50104;52.002;4.688;2024-01-11T09:35:32;-3.60;81.30
47546;DHT22;50104;52.002;4.688;2024-01-11T09:40:33;-3.50;81.60
47546;DHT22;50104;52.002;4.688;2024-01-11T09:45:34;-3.30;81.70
47546;DHT22;50104;52.002;4.688;2024-01-11T09:50:38;-3.20;81.70
47546;DHT22;50104;52.002;4.688;2024-01-11T09:55:40;-3.00;82.00
47546;DHT22;50104;52.002;4.688;2024-01-11T10:00:41;-2.80;82.60
47546;DHT22;50104;52.002;4.688;2024-01-11T10:05:42;-2.60;83.00
47546;DHT22;50104;52.002;4.688;2024-01-11T10:10:45;-2.40;83.60
47546;DHT22;50104;52.002;4.688;2024-01-11T10:15:46;-2.10;83.80
47546;DHT22;50104;52.002;4.688;2024-01-11T10:20:48;-1.90;84.00
47546;DHT22;50104;52.002;4.688;2024-01-11T10:25:49;-1.80;83.60
47546;DHT22;50104;52.002;4.688;2024-01-11T10:30:51;-1.60;82.60
47546;DHT22;50104;52.002;4.688;2024-01-11T10:35:55;-1.50;81.70
47546;DHT22;50104;52.002;4.688;2024-01-11T10:40:55;-1.30;81.40
47546;DHT22;50104;52.002;4.688;2024-01-11T10:46:00;-1.20;81.60
47546;DHT22;50104;52.002;4.688;2024-01-11T10:51:07;-1.10;81.60
47546;DHT22;50104;52.002;4.688;2024-01-11T10:56:10;-0.90;81.40
47546;DHT22;50104;52.002;4.688;2024-01-11T11:01:16;-0.80;81.40
47546;DHT22;50104;52.002;4.688;2024-01-11T11:06:19;-0.70;81.80
47546;DHT22;50104;52.002;4.688;2024-01-11T11:11:20;-0.50;82.40
47546;DHT22;50104;52.002;4.688;2024-01-11T11:16:22;-0.40;82.40
47546;DHT22;50104;52.002;4.688;2024-01-11T11:21:24;-0.30;82.70
47546;DHT22;50104;52.002;4.688;2024-01-11T11:26:26;-0.10;82.80
47546;DHT22;50104;52.002;4.688;2024-01-11T11:31:41;0.00;82.60
47546;DHT22;50104;52.002;4.688;2024-01-11T11:36:46;0.10;83.10
47546;DHT22;50104;52.002;4.688;2024-01-11T11:41:47;0.20;83.00
47546;DHT22;50104;52.002;4.688;2024-01-11T11:46:50;0.40;83.10
47546;DHT22;50104;52.002;4.688;2024-01-11T11:51:51;0.50;83.00
47546;DHT22;50104;52.002;4.688;2024-01-11T11:56:56;0.60;83.30
47546;DHT22;50104;52.002;4.688;2024-01-11T12:01:57;0.70;83.30
47546;DHT22;50104;52.002;4.688;2024-01-11T12:06:59;0.80;83.60
47546;DHT22;50104;52.002;4.688;2024-01-11T12:12:00;0.90;83.80
47546;DHT22;50104;52.002;4.688;2024-01-11T12:17:01;1.00;84.30
47546;DHT22;50104;52.002;4.688;2024-01-11T12:22:02;1.10;84.70
47546;DHT22;50104;52.002;4.688;2024-01-11T12:27:03;1.20;85.00
47546;DHT22;50104;52.002;4.688;2024-01-11T12:32:04;1.40;85.00
47546;DHT22;50104;52.002;4.688;2024-01-11T12:37:05;1.50;84.90
47546;DHT22;50104;52.002;4.688;2024-01-11T12:42:06;1.60;85.10
47546;DHT22;50104;52.002;4.688;2024-01-11T12:47:07;1.70;85.20
47546;DHT22;50104;52.002;4.688;2024-01-11T12:52:18;1.80;85.30
47546;DHT22;50104;52.002;4.688;2024-01-11T12:57:20;1.90;85.20
47546;DHT22;50104;52.002;4.688;2024-01-11T13:02:21;2.00;84.80
47546;DHT22;50104;52.002;4.688;2024-01-11T13:07:21;2.00;84.70
47546;DHT22;50104;52.002;4.688;2024-01-11T13:12:23;2.10;84.60
47546;DHT22;50104;52.002;4.688;2024-01-11T13:17:24;2.20;84.50
47546;DHT22;50104;52.002;4.688;2024-01-11T13:22:25;2.20;83.70
47546;DHT22;50104;52.002;4.688;2024-01-11T13:27:27;2.30;83.70
47546;DHT22;50104;52.002;4.688;2024-01-11T13:32:28;2.30;83.60
47546;DHT22;50104;52.002;4.688;2024-01-11T13:37:29;2.30;83.40
47546;DHT22;50104;52.002;4.688;2024-01-11T13:42:29;2.40;83.00
47546;DHT22;50104;52.002;4.688;2024-01-11T13:47:30;2.40;83.00
47546;DHT22;50104;52.002;4.688;2024-01-11T13:52:31;2.40;83.00
47546;DHT22;50104;52.002;4.688;2024-01-11T13:57:32;2.50;83.00
47546;DHT22;50104;52.002;4.688;2024-01-11T14:02:34;2.50;82.70
47546;DHT22;50104;52.002;4.688;2024-01-11T14:07:35;2.50;83.00
47546;DHT22;50104;52.002;4.688;2024-01-11T14:12:36;2.50;83.30
47546;DHT22;50104;52.002;4.688;2024-01-11T14:17:37;2.60;83.40
47546;DHT22;50104;52.002;4.688;2024-01-11T14:22:40;2.60;83.50
47546;DHT22;50104;52.002;4.688;2024-01-11T14:27:41;2.60;83.20
47546;DHT22;50104;52.002;4.688;2024-01-11T14:32:42;2.60;83.10
47546;DHT22;50104;52.002;4.688;2024-01-11T14:37:43;2.60;83.00
47546;DHT22;50104;52.002;4.688;2024-01-11T14:42:45;2.70;82.60
47546;DHT22;50104;52.002;4.688;2024-01-11T14:47:46;2.70;82.30
47546;DHT22;50104;52.002;4.688;2024-01-11T14:52:47;2.70;82.00
47546;DHT22;50104;52.002;4.688;2024-01-11T14:57:48;2.70;81.70
47546;DHT22;50104;52.002;4.688;2024-01-11T15:02:48;2.70;81.90
47546;DHT22;50104;52.002;4.688;2024-01-11T15:07:50;2.70;81.90
47546;DHT22;50104;52.002;4.688;2024-01-11T15:12:50;2.70;82.30
47546;DHT22;50104;52.002;4.688;2024-01-11T15:17:51;2.70;82.20
47546;DHT22;50104;52.002;4.688;2024-01-11T15:22:52;2.70;82.20
47546;DHT22;50104;52.002;4.688;2024-01-11T15:27:55;2.60;81.80
47546;DHT22;50104;52.002;4.688;2024-01-11T15:32:55;2.60;81.90
47546;DHT22;50104;52.002;4.688;2024-01-11T15:37:56;2.60;82.30
47546;DHT22;50104;52.002;4.688;2024-01-11T15:42:58;2.60;81.80
47546;DHT22;50104;52.002;4.688;2024-01-11T15:47:58;2.60;82.40
47546;DHT22;50104;52.002;4.688;2024-01-11T15:53:00;2.60;83.00
47546;DHT22;50104;52.002;4.688;2024-01-11T15:58:01;2.60;82.90
47546;DHT22;50104;52.002;4.688;2024-01-11T16:03:02;2.60;82.70
47546;DHT22;50104;52.002;4.688;2024-01-11T16:08:03;2.60;82.10
47546;DHT22;50104;52.002;4.688;2024-01-11T16:13:05;2.60;82.10
47546;DHT22;50104;52.002;4.688;2024-01-11T16:18:06;2.60;81.80
47546;DHT22;50104;52.002;4.688;2024-01-11T16:23:07;2.60;81.20
47546;DHT22;50104;52.002;4.688;2024-01-11T16:28:08;2.50;81.50
47546;DHT22;50104;52.002;4.688;2024-01-11T16:33:09;2.50;81.10
47546;DHT22;50104;52.002;4.688;2024-01-11T16:38:10;2.50;82.90
47546;DHT22;50104;52.002;4.688;2024-01-11T16:43:11;2.50;83.10
47546;DHT22;50104;52.002;4.688;2024-01-11T16:48:12;2.50;82.50
47546;DHT22;50104;52.002;4.688;2024-01-11T16:53:17;2.50;82.30
47546;DHT22;50104;52.002;4.688;2024-01-11T16:58:18;2.50;82.00
47546;DHT22;50104;52.002;4.688;2024-01-11T17:03:18;2.50;81.90
47546;DHT22;50104;52.002;4.688;2024-01-11T17:08:19;2.50;82.00
47546;DHT22;50104;52.002;4.688;2024-01-11T17:13:20;2.50;81.80
47546;DHT22;50104;52.002;4.688;2024-01-11T17:18:22;2.50;81.90
47546;DHT22;50104;52.002;4.688;2024-01-11T17:23:23;2.50;81.90
47546;DHT22;50104;52.002;4.688;2024-01-11T17:28:24;2.50;81.90
47546;DHT22;50104;52.002;4.688;2024-01-11T17:33:26;2.50;82.10
47546;DHT22;50104;52.002;4.688;2024-01-11T17:38:26;2.50;82.20
47546;DHT22;50104;52.002;4.688;2024-01-11T17:43:27;2.50;82.60
47546;DHT22;50104;52.002;4.688;2024-01-11T17:48:28;2.50;82.90
47546;DHT22;50104;52.002;4.688;2024-01-11T17:53:29;2.50;83.40
47546;DHT22;50104;52.002;4.688;2024-01-11T17:58:30;2.50;83.20
47546;DHT22;50104;52.002;4.688;2024-01-11T18:03:31;2.50;82.90
47546;DHT22;50104;52.002;4.688;2024-01-11T18:08:32;2.50;82.70
47546;DHT22;50104;52.002;4.688;2024-01-11T18:13:35;2.60;82.70
47546;DHT22;50104;52.002;4.688;2024-01-11T18:18:36;2.60;82.50
47546;DHT22;50104;52.002;4.688;2024-01-11T18:23:37;2.60;82.90
47546;DHT22;50104;52.002;4.688;2024-01-11T18:28:38;2.60;83.00
47546;DHT22;50104;52.002;4.688;2024-01-11T18:33:39;2.60;83.20
47546;DHT22;50104;52.002;4.688;2024-01-11T18:38:40;2.60;83.00
47546;DHT22;50104;52.002;4.688;2024-01-11T18:43:41;2.60;82.90
47546;DHT22;50104;52.002;4.688;2024-01-11T18:48:42;2.60;82.90
47546;DHT22;50104;52.002;4.688;2024-01-11T18:53:43;2.60;82.90
47546;DHT22;50104;52.002;4.688;2024-01-11T18:58:43;2.70;83.10
47546;DHT22;50104;52.002;4.688;2024-01-11T19:03:45;2.70;83.10
47546;DHT22;50104;52.002;4.688;2024-01-11T19:08:45;2.70;83.20
47546;DHT22;50104;52.002;4.688;2024-01-11T19:13:46;2.70;83.10
47546;DHT22;50104;52.002;4.688;2024-01-11T19:18:47;2.70;83.00
47546;DHT22;50104;52.002;4.688;2024-01-11T19:23:48;2.70;83.10
47546;DHT22;50104;52.002;4.688;2024-01-11T19:28:49;2.70;83.40
47546;DHT22;50104;52.002;4.688;2024-01-11T19:33:49;2.70;83.50
47546;DHT22;50104;52.002;4.688;2024-01-11T19:38:51;2.80;84.00
47546;DHT22;50104;52.002;4.688;2024-01-11T19:43:52;2.80;84.20
47546;DHT22;50104;52.002;4.688;2024-01-11T19:48:53;2.80;84.20
47546;DHT22;50104;52.002;4.688;2024-01-11T19:53:54;2.80;84.40
47546;DHT22;50104;52.002;4.688;2024-01-11T19:58:55;2.80;84.80
47546;DHT22;50104;52.002;4.688;2024-01-11T20:03:56;2.90;84.80
47546;DHT22;50104;52.002;4.688;2024-01-11T20:08:58;2.90;85.00
47546;DHT22;50104;52.002;4.688;2024-01-11T20:13:58;2.90;85.10
47546;DHT22;50104;52.002;4.688;2024-01-11T20:18:59;3.00;85.20
47546;DHT22;50104;52.002;4.688;2024-01-11T20:24:00;3.00;85.30
47546;DHT22;50104;52.002;4.688;2024-01-11T20:29:01;3.00;85.60
47546;DHT22;50104;52.002;4.688;2024-01-11T20:34:02;3.10;85.90
47546;DHT22;50104;52.002;4.688;2024-01-11T20:39:03;3.10;85.90
47546;DHT22;50104;52.002;4.688;2024-01-11T20:44:05;3.20;86.20
47546;DHT22;50104;52.002;4.688;2024-01-11T20:49:06;3.20;86.50
47546;DHT22;50104;52.002;4.688;2024-01-11T20:54:06;3.30;86.30
47546;DHT22;50104;52.002;4.688;2024-01-11T20:59:07;3.30;86.50
47546;DHT22;50104;52.002;4.688;2024-01-11T21:04:08;3.40;86.60
47546;DHT22;50104;52.002;4.688;2024-01-11T21:09:09;3.40;86.90
47546;DHT22;50104;52.002;4.688;2024-01-11T21:14:11;3.50;87.00
47546;DHT22;50104;52.002;4.688;2024-01-11T21:19:12;3.50;86.90
47546;DHT22;50104;52.002;4.688;2024-01-11T21:24:12;3.60;87.10
47546;DHT22;50104;52.002;4.688;2024-01-11T21:29:16;3.60;87.00
47546;DHT22;50104;52.002;4.688;2024-01-11T21:34:17;3.60;87.40
47546;DHT22;50104;52.002;4.688;2024-01-11T21:39:18;3.70;87.70
47546;DHT22;50104;52.002;4.688;2024-01-11T21:44:18;3.70;87.80
47546;DHT22;50104;52.002;4.688;2024-01-11T21:49:19;3.70;87.90
47546;DHT22;50104;52.002;4.688;2024-01-11T21:54:20;3.80;87.80
47546;DHT22;50104;52.002;4.688;2024-01-11T21:59:23;3.80;87.80
47546;DHT22;50104;52.002;4.688;2024-01-11T22:04:24;3.80;87.50
47546;DHT22;50104;52.002;4.688;2024-01-11T22:09:25;3.90;87.40
47546;DHT22;50104;52.002;4.688;2024-01-11T22:14:25;3.90;87.40
47546;DHT22;50104;52.002;4.688;2024-01-11T22:19:26;3.90;87.30
47546;DHT22;50104;52.002;4.688;2024-01-11T22:24:27;3.90;87.40
47546;DHT22;50104;52.002;4.688;2024-01-11T22:29:28;3.90;87.50
47546;DHT22;50104;52.002;4.688;2024-01-11T22:34:29;3.90;87.50
47546;DHT22;50104;52.002;4.688;2024-01-11T22:39:30;3.90;87.40
47546;DHT22;50104;52.002;4.688;2024-01-11T22:44:31;4.00;87.40
47546;DHT22;50104;52.002;4.688;2024-01-11T22:49:31;4.00;87.20
47546;DHT22;50104;52.002;4.688;2024-01-11T22:54:35;4.00;87.30
47546;DHT22;50104;52.002;4.688;2024-01-11T22:59:36;4.00;87.50
47546;DHT22;50104;52.002;4.688;2024-01-11T23:04:37;4.00;87.60
47546;DHT22;50104;52.002;4.688;2024-01-11T23:09:38;4.00;87.40
47546;DHT22;50104;52.002;4.688;2024-01-11T23:14:38;4.00;87.20
47546;DHT22;50104;52.002;4.688;2024-01-11T23:19:39;4.00;87.30
47546;DHT22;50104;52.002;4.688;2024-01-11T23:24:40;4.00;87.20
47546;DHT22;50104;52.002;4.688;2024-01-11T23:29:41;4.00;87.40
47546;DHT22;50104;52.002;4.688;2024-01-11T23:34:42;4.10;87.30
47546;DHT22;50104;52.002;4.688;2024-01-11T23:39:42;4.10;87.60
47546;DHT22;50104;52.002;4.688;2024-01-11T23:44:43;4.10;87.60
47546;DHT22;50104;52.002;4.688;2024-01-11T23:49:44;4.10;87.40
47546;DHT22;50104;52.002;4.688;2024-01-11T23:54:45;4.10;87.30
47546;DHT22;50104;52.002;4.688;2024-01-11T23:59:45;4.10;87.00
